sensor_id;sensor_type;location;lat;lon;timestamp;pressure;altitude;pressure_sealevel;temperature;humidity
9538;BME280;4807;48.024;11.726;2023-03-03T00:03:15;95028.84;;;-0.97;89.30
9538;BME280;4807;48.024;11.726;2023-03-03T00:06:25;95025.56;;;-0.99;89.27
9538;BME280;4807;48.024;11.726;2023-03-03T00:09:33;95019.75;;;-1.02;88.44
9538;BME280;4807;48.024;11.726;2023-03-03T00:12:47;95020.72;;;-1.03;88.50
9538;BME280;4807;48.024;11.726;2023-03-03T00:16:14;95024.56;;;-1.07;88.87
9538;BME280;4807;48.024;11.726;2023-03-03T00:19:24;95024.22;;;-0.93;88.04
9538;BME280;4807;48.024;11.726;2023-03-03T00:22:36;95026.13;;;-0.95;88.81
9538;BME280;4807;48.024;11.726;2023-03-03T00:25:50;95030.50;;;-1.05;88.40
9538;BME280;4807;48.024;11.726;2023-03-03T00:28:59;95027.69;;;-1.13;88.50
9538;BME280;4807;48.024;11.726;2023-03-03T00:32:22;95024.09;;;-1.12;88.67
9538;BME280;4807;48.024;11.726;2023-03-03T00:35:33;95026.28;;;-1.18;88.77
9538;BME280;4807;48.024;11.726;2023-03-03T00:38:42;95032.41;;;-1.07;87.77
9538;BME280;4807;48.024;11.726;2023-03-03T00:41:51;95028.56;;;-1.03;87.88
9538;BME280;4807;48.024;11.726;2023-03-03T00:45:00;95027.09;;;-1.17;88.26
9538;BME280;4807;48.024;11.726;2023-03-03T00:48:26;95024.56;;;-1.07;88.56
9538;BME280;4807;48.024;11.726;2023-03-03T00:51:36;95023.34;;;-1.24;87.84
9538;BME280;4807;48.024;11.726;2023-03-03T00:54:45;95022.19;;;-1.10;88.20
9538;BME280;4807;48.024;11.726;2023-03-03T00:57:54;95022.91;;;-1.08;88.78
9538;BME280;4807;48.024;11.726;2023-03-03T01:01:08;95024.09;;;-1.12;87.88
9538;BME280;4807;48.024;11.726;2023-03-03T01:04:23;95025.38;;;-1.07;88.74
9538;BME280;4807;48.024;11.726;2023-03-03T01:07:33;95022.03;;;-0.88;87.02
9538;BME280;4807;48.024;11.726;2023-03-03T01:10:45;95033.53;;;-1.00;87.73
9538;BME280;4807;48.024;11.726;2023-03-03T01:13:57;95035.53;;;-1.13;87.71
9538;BME280;4807;48.024;11.726;2023-03-03T01:17:06;95027.50;;;-1.22;87.57
9538;BME280;4807;48.024;11.726;2023-03-03T01:20:16;95026.47;;;-1.30;88.38
9538;BME280;4807;48.024;11.726;2023-03-03T01:23:26;95022.09;;;-1.30;87.80
9538;BME280;4807;48.024;11.726;2023-03-03T01:26:34;95024.50;;;-1.38;87.88
9538;BME280;4807;48.024;11.726;2023-03-03T01:29:43;95017.41;;;-1.26;88.37
9538;BME280;4807;48.024;11.726;2023-03-03T01:32:52;95015.06;;;-1.08;87.05
9538;BME280;4807;48.024;11.726;2023-03-03T01:36:01;95017.59;;;-1.18;87.36
9538;BME280;4807;48.024;11.726;2023-03-03T01:39:11;95014.09;;;-1.28;87.86
9538;BME280;4807;48.024;11.726;2023-03-03T01:42:20;95013.28;;;-1.49;88.40
9538;BME280;4807;48.024;11.726;2023-03-03T01:45:31;95009.41;;;-1.55;87.80
9538;BME280;4807;48.024;11.726;2023-03-03T01:48:41;95009.59;;;-1.47;87.43
9538;BME280;4807;48.024;11.726;2023-03-03T01:51:55;95014.31;;;-1.41;87.78
9538;BME280;4807;48.024;11.726;2023-03-03T01:55:14;95003.53;;;-1.47;87.48
9538;BME280;4807;48.024;11.726;2023-03-03T01:58:29;95004.28;;;-1.57;87.77
9538;BME280;4807;48.024;11.726;2023-03-03T02:01:39;95004.84;;;-1.53;88.58
9538;BME280;4807;48.024;11.726;2023-03-03T02:04:49;95002.31;;;-1.64;88.35
9538;BME280;4807;48.024;11.726;2023-03-03T02:07:57;95016.09;;;-1.62;88.66
9538;BME280;4807;48.024;11.726;2023-03-03T02:11:09;95001.09;;;-1.60;88.41
9538;BME280;4807;48.024;11.726;2023-03-03T02:14:19;95011.22;;;-1.67;88.78
9538;BME280;4807;48.024;11.726;2023-03-03T02:17:27;95007.22;;;-1.71;88.79
9538;BME280;4807;48.024;11.726;2023-03-03T02:20:53;95012.44;;;-1.71;88.46
9538;BME280;4807;48.024;11.726;2023-03-03T02:24:11;95013.50;;;-1.73;88.73
9538;BME280;4807;48.024;11.726;2023-03-03T02:27:26;95012.09;;;-1.77;87.42
9538;BME280;4807;48.024;11.726;2023-03-03T02:30:39;95014.97;;;-1.80;88.28
9538;BME280;4807;48.024;11.726;2023-03-03T02:33:51;95016.00;;;-1.72;87.97
9538;BME280;4807;48.024;11.726;2023-03-03T02:37:02;95008.78;;;-1.79;87.93
9538;BME280;4807;48.024;11.726;2023-03-03T02:40:12;95002.97;;;-1.83;87.23
9538;BME280;4807;48.024;11.726;2023-03-03T02:43:27;95011.88;;;-1.85;88.38
9538;BME280;4807;48.024;11.726;2023-03-03T02:46:40;95006.22;;;-1.90;88.07
9538;BME280;4807;48.024;11.726;2023-03-03T02:49:49;95001.22;;;-1.94;87.67
9538;BME280;4807;48.024;11.726;2023-03-03T02:52:57;95003.41;;;-1.99;87.76
9538;BME280;4807;48.024;11.726;2023-03-03T02:56:07;95002.91;;;-1.93;87.82
9538;BME280;4807;48.024;11.726;2023-03-03T02:59:18;95015.94;;;-1.93;87.35
9538;BME280;4807;48.024;11.726;2023-03-03T03:02:28;95010.44;;;-1.78;87.19
9538;BME280;4807;48.024;11.726;2023-03-03T03:05:37;95006.94;;;-1.88;87.20
9538;BME280;4807;48.024;11.726;2023-03-03T03:08:45;95007.03;;;-1.90;87.46
9538;BME280;4807;48.024;11.726;2023-03-03T03:11:54;94995.75;;;-1.79;86.72
9538;BME280;4807;48.024;11.726;2023-03-03T03:15:07;94997.69;;;-1.93;86.97
9538;BME280;4807;48.024;11.726;2023-03-03T03:18:16;94993.34;;;-2.03;87.16
9538;BME280;4807;48.024;11.726;2023-03-03T03:21:25;94993.69;;;-2.08;86.84
9538;BME280;4807;48.024;11.726;2023-03-03T03:24:34;94997.25;;;-2.09;87.75
9538;BME280;4807;48.024;11.726;2023-03-03T03:27:46;94992.03;;;-2.09;88.15
9538;BME280;4807;48.024;11.726;2023-03-03T03:30:56;94998.09;;;-2.08;87.52
9538;BME280;4807;48.024;11.726;2023-03-03T03:34:05;95001.41;;;-2.06;87.44
9538;BME280;4807;48.024;11.726;2023-03-03T03:37:13;95002.22;;;-2.06;87.66
9538;BME280;4807;48.024;11.726;2023-03-03T03:40:24;94997.84;;;-2.05;87.43
9538;BME280;4807;48.024;11.726;2023-03-03T03:43:33;95005.56;;;-2.04;88.02
9538;BME280;4807;48.024;11.726;2023-03-03T03:46:43;95010.94;;;-1.84;88.00
9538;BME280;4807;48.024;11.726;2023-03-03T03:49:52;95002.84;;;-1.49;87.34
9538;BME280;4807;48.024;11.726;2023-03-03T03:53:00;95002.94;;;-1.51;87.32
9538;BME280;4807;48.024;11.726;2023-03-03T03:56:09;95013.25;;;-1.70;87.42
9538;BME280;4807;48.024;11.726;2023-03-03T03:59:22;95013.75;;;-1.76;87.34
9538;BME280;4807;48.024;11.726;2023-03-03T04:02:33;95012.56;;;-1.51;86.91
9538;BME280;4807;48.024;11.726;2023-03-03T04:05:42;95010.59;;;-1.59;87.55
9538;BME280;4807;48.024;11.726;2023-03-03T04:08:51;95004.19;;;-1.55;87.69
9538;BME280;4807;48.024;11.726;2023-03-03T04:12:02;95012.44;;;-1.50;87.25
9538;BME280;4807;48.024;11.726;2023-03-03T04:15:12;95001.94;;;-1.39;87.75
9538;BME280;4807;48.024;11.726;2023-03-03T04:18:23;95005.44;;;-1.29;87.49
9538;BME280;4807;48.024;11.726;2023-03-03T04:21:31;95007.16;;;-0.97;85.49
9538;BME280;4807;48.024;11.726;2023-03-03T04:24:41;95019.94;;;-0.94;86.46
9538;BME280;4807;48.024;11.726;2023-03-03T04:27:49;95008.63;;;-0.74;86.08
9538;BME280;4807;48.024;11.726;2023-03-03T04:31:00;95006.03;;;-0.74;86.64
9538;BME280;4807;48.024;11.726;2023-03-03T04:34:12;95011.84;;;-0.61;86.74
9538;BME280;4807;48.024;11.726;2023-03-03T04:37:21;95013.06;;;-0.34;85.59
9538;BME280;4807;48.024;11.726;2023-03-03T04:40:30;95017.47;;;-0.25;85.40
9538;BME280;4807;48.024;11.726;2023-03-03T04:43:40;95008.22;;;-0.29;85.82
9538;BME280;4807;48.024;11.726;2023-03-03T04:46:51;95010.19;;;-0.12;84.69
9538;BME280;4807;48.024;11.726;2023-03-03T04:50:01;95010.75;;;-0.18;86.12
9538;BME280;4807;48.024;11.726;2023-03-03T04:53:11;95013.22;;;-0.07;84.47
9538;BME280;4807;48.024;11.726;2023-03-03T04:56:21;95011.16;;;-0.13;85.13
9538;BME280;4807;48.024;11.726;2023-03-03T04:59:29;95011.28;;;-0.15;85.68
9538;BME280;4807;48.024;11.726;2023-03-03T05:02:39;95007.19;;;-0.17;86.25
9538;BME280;4807;48.024;11.726;2023-03-03T05:05:49;95006.88;;;-0.14;86.84
9538;BME280;4807;48.024;11.726;2023-03-03T05:08:58;95011.47;;;0.03;85.35
9538;BME280;4807;48.024;11.726;2023-03-03T05:12:06;95016.31;;;0.08;85.46
9538;BME280;4807;48.024;11.726;2023-03-03T05:15:15;95015.19;;;0.10;85.95
9538;BME280;4807;48.024;11.726;2023-03-03T05:18:24;95018.09;;;0.26;84.72
9538;BME280;4807;48.024;11.726;2023-03-03T05:21:34;95016.75;;;0.22;85.63
9538;BME280;4807;48.024;11.726;2023-03-03T05:24:46;95021.97;;;0.22;86.05
9538;BME280;4807;48.024;11.726;2023-03-03T05:27:55;95010.81;;;0.20;86.73
9538;BME280;4807;48.024;11.726;2023-03-03T05:31:03;95013.44;;;0.20;86.64
9538;BME280;4807;48.024;11.726;2023-03-03T05:34:12;95015.78;;;0.23;86.65
9538;BME280;4807;48.024;11.726;2023-03-03T05:37:21;95023.91;;;0.40;85.94
9538;BME280;4807;48.024;11.726;2023-03-03T05:40:30;95021.56;;;0.46;85.52
9538;BME280;4807;48.024;11.726;2023-03-03T05:43:38;95026.13;;;0.44;85.91
9538;BME280;4807;48.024;11.726;2023-03-03T05:46:47;95022.53;;;0.64;85.32
9538;BME280;4807;48.024;11.726;2023-03-03T05:49:55;95025.16;;;0.55;85.69
9538;BME280;4807;48.024;11.726;2023-03-03T05:53:04;95026.00;;;0.55;86.41
9538;BME280;4807;48.024;11.726;2023-03-03T05:56:12;95039.75;;;0.57;85.96
9538;BME280;4807;48.024;11.726;2023-03-03T05:59:21;95044.59;;;0.62;85.58
9538;BME280;4807;48.024;11.726;2023-03-03T06:02:29;95034.25;;;0.70;85.35
9538;BME280;4807;48.024;11.726;2023-03-03T06:05:38;95035.09;;;0.70;85.92
9538;BME280;4807;48.024;11.726;2023-03-03T06:08:48;95052.16;;;0.84;85.12
9538;BME280;4807;48.024;11.726;2023-03-03T06:11:56;95047.75;;;0.94;84.60
9538;BME280;4807;48.024;11.726;2023-03-03T06:15:06;95048.84;;;0.92;84.73
9538;BME280;4807;48.024;11.726;2023-03-03T06:18:14;95051.91;;;0.77;84.77
9538;BME280;4807;48.024;11.726;2023-03-03T06:21:23;95053.00;;;0.75;85.24
9538;BME280;4807;48.024;11.726;2023-03-03T06:24:33;95051.19;;;0.75;86.10
9538;BME280;4807;48.024;11.726;2023-03-03T06:27:41;95054.78;;;0.84;85.30
9538;BME280;4807;48.024;11.726;2023-03-03T06:30:52;95057.66;;;1.00;85.20
9538;BME280;4807;48.024;11.726;2023-03-03T06:34:01;95055.03;;;1.00;84.91
9538;BME280;4807;48.024;11.726;2023-03-03T06:37:09;95063.16;;;1.07;85.12
9538;BME280;4807;48.024;11.726;2023-03-03T06:40:19;95071.16;;;1.15;84.77
9538;BME280;4807;48.024;11.726;2023-03-03T06:43:27;95064.69;;;1.09;85.02
9538;BME280;4807;48.024;11.726;2023-03-03T06:46:35;95065.78;;;1.07;84.67
9538;BME280;4807;48.024;11.726;2023-03-03T06:49:43;95077.41;;;1.04;85.08
9538;BME280;4807;48.024;11.726;2023-03-03T06:53:03;95077.25;;;1.06;85.83
9538;BME280;4807;48.024;11.726;2023-03-03T06:56:17;95079.19;;;1.13;85.90
9538;BME280;4807;48.024;11.726;2023-03-03T06:59:26;95082.91;;;1.21;86.15
9538;BME280;4807;48.024;11.726;2023-03-03T07:02:35;95089.22;;;1.28;86.24
9538;BME280;4807;48.024;11.726;2023-03-03T07:05:44;95084.50;;;1.41;85.41
9538;BME280;4807;48.024;11.726;2023-03-03T07:08:53;95080.63;;;1.45;84.81
9538;BME280;4807;48.024;11.726;2023-03-03T07:15:46;95097.00;;;1.66;84.49
9538;BME280;4807;48.024;11.726;2023-03-03T07:18:58;95091.47;;;1.69;84.57
9538;BME280;4807;48.024;11.726;2023-03-03T07:22:15;95103.88;;;1.77;83.90
9538;BME280;4807;48.024;11.726;2023-03-03T07:25:30;95103.31;;;1.73;83.47
9538;BME280;4807;48.024;11.726;2023-03-03T07:28:52;95098.63;;;1.77;83.71
9538;BME280;4807;48.024;11.726;2023-03-03T07:32:19;95105.22;;;1.81;83.34
9538;BME280;4807;48.024;11.726;2023-03-03T07:35:37;95105.22;;;1.81;83.76
9538;BME280;4807;48.024;11.726;2023-03-03T07:38:52;95113.66;;;1.84;83.10
9538;BME280;4807;48.024;11.726;2023-03-03T07:42:25;95108.94;;;1.88;82.77
9538;BME280;4807;48.024;11.726;2023-03-03T07:45:46;95112.38;;;1.88;83.51
9538;BME280;4807;48.024;11.726;2023-03-03T07:48:57;95123.97;;;1.96;82.70
9538;BME280;4807;48.024;11.726;2023-03-03T07:52:25;95131.44;;;2.00;81.75
9538;BME280;4807;48.024;11.726;2023-03-03T07:55:36;95129.66;;;1.91;81.63
9538;BME280;4807;48.024;11.726;2023-03-03T07:58:46;95134.47;;;1.96;82.56
9538;BME280;4807;48.024;11.726;2023-03-03T08:01:56;95128.25;;;1.97;82.14
9538;BME280;4807;48.024;11.726;2023-03-03T08:05:30;95133.91;;;2.02;82.20
9538;BME280;4807;48.024;11.726;2023-03-03T08:08:41;95127.22;;;2.17;82.50
9538;BME280;4807;48.024;11.726;2023-03-03T08:11:56;95134.34;;;2.24;80.92
9538;BME280;4807;48.024;11.726;2023-03-03T08:15:20;95142.75;;;2.28;81.18
9538;BME280;4807;48.024;11.726;2023-03-03T08:18:35;95141.00;;;2.46;80.42
9538;BME280;4807;48.024;11.726;2023-03-03T08:21:45;95129.44;;;2.66;80.72
9538;BME280;4807;48.024;11.726;2023-03-03T08:24:54;95132.06;;;2.66;79.33
9538;BME280;4807;48.024;11.726;2023-03-03T08:31:15;95137.94;;;2.96;78.68
9538;BME280;4807;48.024;11.726;2023-03-03T08:34:44;95136.34;;;3.03;78.97
9538;BME280;4807;48.024;11.726;2023-03-03T08:37:54;95141.75;;;3.19;79.24
9538;BME280;4807;48.024;11.726;2023-03-03T08:41:03;95131.50;;;3.34;77.91
9538;BME280;4807;48.024;11.726;2023-03-03T08:44:12;95131.91;;;3.39;78.30
9538;BME280;4807;48.024;11.726;2023-03-03T08:47:20;95131.81;;;3.49;76.95
9538;BME280;4807;48.024;11.726;2023-03-03T08:50:29;95137.38;;;3.45;76.66
9538;BME280;4807;48.024;11.726;2023-03-03T08:53:39;95131.03;;;3.82;76.91
9538;BME280;4807;48.024;11.726;2023-03-03T08:56:47;95132.34;;;3.78;75.54
9538;BME280;4807;48.024;11.726;2023-03-03T08:59:55;95136.53;;;3.89;75.51
9538;BME280;4807;48.024;11.726;2023-03-03T09:03:04;95136.63;;;4.05;74.52
9538;BME280;4807;48.024;11.726;2023-03-03T09:06:13;95133.41;;;3.93;74.60
9538;BME280;4807;48.024;11.726;2023-03-03T09:09:22;95142.25;;;4.10;74.75
9538;BME280;4807;48.024;11.726;2023-03-03T09:12:34;95147.16;;;4.39;74.02
9538;BME280;4807;48.024;11.726;2023-03-03T09:15:44;95153.38;;;3.96;74.52
9538;BME280;4807;48.024;11.726;2023-03-03T09:18:53;95152.38;;;3.71;75.57
9538;BME280;4807;48.024;11.726;2023-03-03T09:22:18;95159.19;;;3.56;76.41
9538;BME280;4807;48.024;11.726;2023-03-03T09:25:34;95162.00;;;3.80;75.85
9538;BME280;4807;48.024;11.726;2023-03-03T09:28:43;95151.91;;;4.01;75.04
9538;BME280;4807;48.024;11.726;2023-03-03T09:31:53;95157.03;;;4.37;73.91
9538;BME280;4807;48.024;11.726;2023-03-03T09:35:34;95160.72;;;4.52;72.28
9538;BME280;4807;48.024;11.726;2023-03-03T09:38:45;95160.34;;;4.47;72.32
9538;BME280;4807;48.024;11.726;2023-03-03T09:42:23;95164.75;;;4.72;72.30
9538;BME280;4807;48.024;11.726;2023-03-03T09:45:58;95167.19;;;5.16;71.22
9538;BME280;4807;48.024;11.726;2023-03-03T09:49:24;95176.03;;;4.90;72.20
9538;BME280;4807;48.024;11.726;2023-03-03T09:52:48;95184.00;;;5.23;70.60
9538;BME280;4807;48.024;11.726;2023-03-03T09:56:08;95187.97;;;5.19;71.01
9538;BME280;4807;48.024;11.726;2023-03-03T09:59:39;95186.53;;;5.73;69.05
9538;BME280;4807;48.024;11.726;2023-03-03T10:03:22;95182.50;;;5.12;70.33
9538;BME280;4807;48.024;11.726;2023-03-03T10:06:40;95185.56;;;4.83;72.97
9538;BME280;4807;48.024;11.726;2023-03-03T10:10:20;95183.16;;;4.56;73.06
9538;BME280;4807;48.024;11.726;2023-03-03T10:14:01;95186.16;;;4.27;73.77
9538;BME280;4807;48.024;11.726;2023-03-03T10:17:40;95190.69;;;4.43;74.17
9538;BME280;4807;48.024;11.726;2023-03-03T10:21:03;95189.69;;;4.78;72.87
9538;BME280;4807;48.024;11.726;2023-03-03T10:24:26;95198.34;;;5.12;70.71
9538;BME280;4807;48.024;11.726;2023-03-03T10:27:53;95192.84;;;4.97;71.31
9538;BME280;4807;48.024;11.726;2023-03-03T10:31:13;95193.63;;;5.40;70.83
9538;BME280;4807;48.024;11.726;2023-03-03T10:34:57;95198.97;;;4.56;71.48
9538;BME280;4807;48.024;11.726;2023-03-03T10:38:37;95201.72;;;4.88;72.15
9538;BME280;4807;48.024;11.726;2023-03-03T10:42:14;95197.66;;;5.02;72.57
9538;BME280;4807;48.024;11.726;2023-03-03T10:46:08;95199.63;;;4.58;72.50
9538;BME280;4807;48.024;11.726;2023-03-03T10:49:31;95203.06;;;4.50;72.57
9538;BME280;4807;48.024;11.726;2023-03-03T10:52:51;95197.47;;;4.95;71.85
9538;BME280;4807;48.024;11.726;2023-03-03T10:56:21;95192.97;;;5.62;71.01
9538;BME280;4807;48.024;11.726;2023-03-03T10:59:54;95193.88;;;5.13;70.71
9538;BME280;4807;48.024;11.726;2023-03-03T11:03:40;95186.91;;;4.95;71.16
9538;BME280;4807;48.024;11.726;2023-03-03T11:07:00;95196.53;;;5.21;70.19
9538;BME280;4807;48.024;11.726;2023-03-03T11:10:40;95195.50;;;4.97;71.64
9538;BME280;4807;48.024;11.726;2023-03-03T11:14:02;95195.91;;;5.19;71.58
9538;BME280;4807;48.024;11.726;2023-03-03T11:17:23;95206.47;;;5.27;70.88
9538;BME280;4807;48.024;11.726;2023-03-03T11:20:45;95197.94;;;5.57;70.94
9538;BME280;4807;48.024;11.726;2023-03-03T11:24:14;95199.34;;;5.19;70.50
9538;BME280;4807;48.024;11.726;2023-03-03T11:27:58;95197.47;;;4.95;72.47
9538;BME280;4807;48.024;11.726;2023-03-03T11:31:15;95201.72;;;4.88;72.19
9538;BME280;4807;48.024;11.726;2023-03-03T11:34:49;95199.91;;;4.89;72.67
9538;BME280;4807;48.024;11.726;2023-03-03T11:38:18;95195.56;;;5.30;72.89
9538;BME280;4807;48.024;11.726;2023-03-03T11:41:37;95198.56;;;5.35;72.14
9538;BME280;4807;48.024;11.726;2023-03-03T11:44:51;95193.94;;;5.69;70.52
9538;BME280;4807;48.024;11.726;2023-03-03T11:48:13;95191.31;;;5.86;69.64
9538;BME280;4807;48.024;11.726;2023-03-03T11:51:35;95188.03;;;5.75;71.56
9538;BME280;4807;48.024;11.726;2023-03-03T11:54:53;95177.28;;;6.01;71.02
9538;BME280;4807;48.024;11.726;2023-03-03T11:58:13;95176.28;;;6.19;70.76
9538;BME280;4807;48.024;11.726;2023-03-03T12:01:33;95168.88;;;5.82;69.94
9538;BME280;4807;48.024;11.726;2023-03-03T12:04:48;95167.19;;;6.68;69.47
9538;BME280;4807;48.024;11.726;2023-03-03T12:08:06;95160.91;;;7.00;68.15
9538;BME280;4807;48.024;11.726;2023-03-03T12:11:23;95152.91;;;7.62;66.02
9538;BME280;4807;48.024;11.726;2023-03-03T12:15:01;95153.44;;;8.32;62.02
9538;BME280;4807;48.024;11.726;2023-03-03T12:18:37;95150.44;;;8.50;60.66
9538;BME280;4807;48.024;11.726;2023-03-03T12:22:11;95153.19;;;8.04;63.74
9538;BME280;4807;48.024;11.726;2023-03-03T12:25:35;95146.63;;;8.15;62.46
9538;BME280;4807;48.024;11.726;2023-03-03T12:28:53;95140.28;;;8.39;63.37
9538;BME280;4807;48.024;11.726;2023-03-03T12:32:17;95146.84;;;8.72;60.99
9538;BME280;4807;48.024;11.726;2023-03-03T12:35:39;95151.78;;;7.34;63.51
9538;BME280;4807;48.024;11.726;2023-03-03T12:38:56;95156.13;;;6.73;65.58
9538;BME280;4807;48.024;11.726;2023-03-03T12:42:23;95158.19;;;6.85;65.69
9538;BME280;4807;48.024;11.726;2023-03-03T12:45:48;95147.59;;;7.16;65.28
9538;BME280;4807;48.024;11.726;2023-03-03T12:49:01;95148.22;;;6.96;65.03
9538;BME280;4807;48.024;11.726;2023-03-03T12:52:26;95150.25;;;7.85;63.61
9538;BME280;4807;48.024;11.726;2023-03-03T12:55:48;95142.66;;;7.96;61.55
9538;BME280;4807;48.024;11.726;2023-03-03T12:59:03;95139.53;;;7.78;62.84
9538;BME280;4807;48.024;11.726;2023-03-03T13:02:38;95142.19;;;8.45;61.63
9538;BME280;4807;48.024;11.726;2023-03-03T13:05:59;95134.03;;;8.17;62.35
9538;BME280;4807;48.024;11.726;2023-03-03T13:09:25;95141.38;;;8.74;61.26
9538;BME280;4807;48.024;11.726;2023-03-03T13:12:43;95143.84;;;8.31;60.02
9538;BME280;4807;48.024;11.726;2023-03-03T13:16:03;95147.97;;;7.59;62.25
9538;BME280;4807;48.024;11.726;2023-03-03T13:19:20;95144.69;;;7.94;61.70
9538;BME280;4807;48.024;11.726;2023-03-03T13:22:46;95148.84;;;7.74;61.56
9538;BME280;4807;48.024;11.726;2023-03-03T13:26:04;95146.59;;;7.63;63.05
9538;BME280;4807;48.024;11.726;2023-03-03T13:29:19;95142.81;;;7.80;61.37
9538;BME280;4807;48.024;11.726;2023-03-03T13:32:37;95144.59;;;7.65;62.16
9538;BME280;4807;48.024;11.726;2023-03-03T13:35:53;95135.44;;;8.57;60.84
9538;BME280;4807;48.024;11.726;2023-03-03T13:39:17;95133.34;;;7.86;62.08
9538;BME280;4807;48.024;11.726;2023-03-03T13:42:36;95135.56;;;8.12;62.14
9538;BME280;4807;48.024;11.726;2023-03-03T13:46:03;95135.88;;;8.61;59.75
9538;BME280;4807;48.024;11.726;2023-03-03T13:49:38;95129.63;;;8.68;59.59
9538;BME280;4807;48.024;11.726;2023-03-03T13:53:21;95125.31;;;8.09;60.69
9538;BME280;4807;48.024;11.726;2023-03-03T13:57:05;95118.88;;;7.51;61.87
9538;BME280;4807;48.024;11.726;2023-03-03T14:00:42;95117.63;;;6.93;63.44
9538;BME280;4807;48.024;11.726;2023-03-03T14:04:02;95108.97;;;6.37;65.23
9538;BME280;4807;48.024;11.726;2023-03-03T14:07:20;95120.88;;;6.33;66.42
9538;BME280;4807;48.024;11.726;2023-03-03T14:10:40;95113.25;;;6.38;66.08
9538;BME280;4807;48.024;11.726;2023-03-03T14:14:03;95111.72;;;6.52;66.18
9538;BME280;4807;48.024;11.726;2023-03-03T14:17:28;95114.84;;;6.56;65.67
9538;BME280;4807;48.024;11.726;2023-03-03T14:20:45;95103.06;;;6.58;66.48
9538;BME280;4807;48.024;11.726;2023-03-03T14:24:00;95097.53;;;6.76;64.68
9538;BME280;4807;48.024;11.726;2023-03-03T14:27:25;95093.56;;;6.80;64.45
9538;BME280;4807;48.024;11.726;2023-03-03T14:30:38;95102.88;;;6.68;64.60
9538;BME280;4807;48.024;11.726;2023-03-03T14:34:00;95099.13;;;6.54;64.84
9538;BME280;4807;48.024;11.726;2023-03-03T14:37:22;95094.78;;;6.30;66.00
9538;BME280;4807;48.024;11.726;2023-03-03T14:40:33;95098.22;;;6.39;65.47
9538;BME280;4807;48.024;11.726;2023-03-03T14:43:43;95093.75;;;6.39;66.29
9538;BME280;4807;48.024;11.726;2023-03-03T14:47:20;95093.69;;;6.56;66.53
9538;BME280;4807;48.024;11.726;2023-03-03T14:50:36;95100.06;;;6.69;65.42
9538;BME280;4807;48.024;11.726;2023-03-03T14:53:47;95094.06;;;6.75;64.71
9538;BME280;4807;48.024;11.726;2023-03-03T14:57:08;95092.69;;;6.87;64.95
9538;BME280;4807;48.024;11.726;2023-03-03T15:00:31;95093.25;;;6.98;63.60
9538;BME280;4807;48.024;11.726;2023-03-03T15:03:56;95104.91;;;6.88;63.73
9538;BME280;4807;48.024;11.726;2023-03-03T15:07:29;95093.25;;;6.98;65.04
9538;BME280;4807;48.024;11.726;2023-03-03T15:10:41;95095.75;;;6.99;64.29
9538;BME280;4807;48.024;11.726;2023-03-03T15:13:50;95096.28;;;7.17;63.81
9538;BME280;4807;48.024;11.726;2023-03-03T15:17:23;95091.97;;;7.16;63.57
9538;BME280;4807;48.024;11.726;2023-03-03T15:20:41;95092.31;;;7.21;62.91
9538;BME280;4807;48.024;11.726;2023-03-03T15:23:58;95084.22;;;7.38;64.11
9538;BME280;4807;48.024;11.726;2023-03-03T15:27:18;95092.41;;;7.65;63.23
9538;BME280;4807;48.024;11.726;2023-03-03T15:30:34;95091.16;;;7.39;64.14
9538;BME280;4807;48.024;11.726;2023-03-03T15:33:55;95101.50;;;7.48;63.87
9538;BME280;4807;48.024;11.726;2023-03-03T15:37:29;95100.19;;;7.30;62.96
9538;BME280;4807;48.024;11.726;2023-03-03T15:40:46;95097.88;;;7.26;63.39
9538;BME280;4807;48.024;11.726;2023-03-03T15:44:11;95098.16;;;7.32;63.93
9538;BME280;4807;48.024;11.726;2023-03-03T15:47:41;95100.75;;;7.40;63.36
9538;BME280;4807;48.024;11.726;2023-03-03T15:51:03;95102.47;;;7.33;63.15
9538;BME280;4807;48.024;11.726;2023-03-03T15:54:40;95097.06;;;7.26;63.90
9538;BME280;4807;48.024;11.726;2023-03-03T15:58:04;95102.00;;;7.29;64.19
9538;BME280;4807;48.024;11.726;2023-03-03T16:01:24;95106.72;;;7.19;64.62
9538;BME280;4807;48.024;11.726;2023-03-03T16:04:38;95106.94;;;7.09;64.93
9538;BME280;4807;48.024;11.726;2023-03-03T16:08:03;95110.84;;;7.21;63.99
9538;BME280;4807;48.024;11.726;2023-03-03T16:11:25;95108.63;;;7.02;65.87
9538;BME280;4807;48.024;11.726;2023-03-03T16:15:03;95114.63;;;6.96;66.46
9538;BME280;4807;48.024;11.726;2023-03-03T16:18:30;95111.50;;;6.93;66.89
9538;BME280;4807;48.024;11.726;2023-03-03T16:22:03;95116.56;;;6.79;67.23
9538;BME280;4807;48.024;11.726;2023-03-03T16:25:41;95118.63;;;6.61;68.05
9538;BME280;4807;48.024;11.726;2023-03-03T16:29:24;95127.56;;;6.52;68.58
9538;BME280;4807;48.024;11.726;2023-03-03T16:32:43;95128.75;;;6.41;68.83
9538;BME280;4807;48.024;11.726;2023-03-03T16:36:02;95126.66;;;6.37;68.86
9538;BME280;4807;48.024;11.726;2023-03-03T16:39:22;95133.50;;;6.15;69.78
9538;BME280;4807;48.024;11.726;2023-03-03T16:42:33;95137.13;;;6.14;70.05
9538;BME280;4807;48.024;11.726;2023-03-03T16:45:43;95140.25;;;6.09;70.16
9538;BME280;4807;48.024;11.726;2023-03-03T16:49:02;95144.09;;;6.07;70.19
9538;BME280;4807;48.024;11.726;2023-03-03T16:52:23;95148.22;;;6.01;70.65
9538;BME280;4807;48.024;11.726;2023-03-03T16:55:41;95141.47;;;5.74;71.80
9538;BME280;4807;48.024;11.726;2023-03-03T16:59:11;95151.19;;;5.82;71.02
9538;BME280;4807;48.024;11.726;2023-03-03T17:02:45;95158.47;;;5.72;71.33
9538;BME280;4807;48.024;11.726;2023-03-03T17:06:05;95160.28;;;5.63;71.75
9538;BME280;4807;48.024;11.726;2023-03-03T17:09:43;95168.88;;;5.49;72.46
9538;BME280;4807;48.024;11.726;2023-03-03T17:13:23;95157.31;;;5.42;72.94
9538;BME280;4807;48.024;11.726;2023-03-03T17:16:48;95162.59;;;5.26;73.66
9538;BME280;4807;48.024;11.726;2023-03-03T17:20:22;95159.72;;;5.11;74.29
9538;BME280;4807;48.024;11.726;2023-03-03T17:24:03;95165.66;;;5.05;74.39
9538;BME280;4807;48.024;11.726;2023-03-03T17:27:22;95171.47;;;5.09;74.84
9538;BME280;4807;48.024;11.726;2023-03-03T17:30:42;95177.38;;;5.03;75.08
9538;BME280;4807;48.024;11.726;2023-03-03T17:34:16;95183.09;;;4.90;75.95
9538;BME280;4807;48.024;11.726;2023-03-03T17:37:41;95191.16;;;4.80;76.06
9538;BME280;4807;48.024;11.726;2023-03-03T17:41:02;95192.41;;;4.60;76.15
9538;BME280;4807;48.024;11.726;2023-03-03T17:44:23;95193.03;;;4.54;76.87
9538;BME280;4807;48.024;11.726;2023-03-03T17:48:03;95200.19;;;4.36;77.03
9538;BME280;4807;48.024;11.726;2023-03-03T17:55:34;95207.69;;;4.22;78.40
9538;BME280;4807;48.024;11.726;2023-03-03T17:59:21;95215.34;;;4.08;78.74
9538;BME280;4807;48.024;11.726;2023-03-03T18:06:40;95213.34;;;3.84;79.71
9538;BME280;4807;48.024;11.726;2023-03-03T18:10:30;95220.16;;;3.69;80.02